createdAt,value
2017-05-03T00:00:09.753Z,46.01
2017-05-03T00:00:42.251Z,45.82
2017-05-03T00:01:14.546Z,45.92
2017-05-03T00:01:46.842Z,45.94
2017-05-03T00:02:19.148Z,45.65
2017-05-03T00:02:51.437Z,45.62
2017-05-03T00:03:23.724Z,45.92
2017-05-03T00:03:56.020Z,45.92
2017-05-03T00:04:28.322Z,45.84
2017-05-03T00:05:00.613Z,45.72
2017-05-03T00:05:32.885Z,45.92
2017-05-03T00:06:06.177Z,45.82
2017-05-03T00:06:39.549Z,45.72
2017-05-03T00:07:11.839Z,45.72
2017-05-03T00:07:44.131Z,45.92
2017-05-03T00:08:16.425Z,45.92
2017-05-03T00:08:48.733Z,45.82
2017-05-03T00:09:21.028Z,45.82
2017-05-03T00:09:53.312Z,45.92
2017-05-03T00:10:25.606Z,45.92
2017-05-03T00:10:57.893Z,46.01
2017-05-03T00:11:30.179Z,45.92
2017-05-03T00:12:02.479Z,45.92
2017-05-03T00:12:34.793Z,45.82
2017-05-03T00:13:07.056Z,45.92
2017-05-03T00:13:39.350Z,45.92
2017-05-03T00:14:11.593Z,45.92
2017-05-03T00:14:43.857Z,45.82
2017-05-03T00:15:16.102Z,45.92
2017-05-03T00:15:48.356Z,45.82
2017-05-03T00:16:20.630Z,46.01
2017-05-03T00:16:52.878Z,46.01
2017-05-03T00:19:31.018Z,45.92
2017-05-03T00:20:03.258Z,45.92
2017-05-03T00:20:35.510Z,45.92
2017-05-03T00:21:07.746Z,46.01
2017-05-03T00:21:40.035Z,46.01
2017-05-03T00:22:12.296Z,45.92
2017-05-03T00:22:44.610Z,45.92
2017-05-03T00:23:16.901Z,46.01
2017-05-03T00:23:49.204Z,45.82
2017-05-03T00:24:21.517Z,46.59
2017-05-03T00:24:53.789Z,45.92
2017-05-03T00:25:26.080Z,46.4
2017-05-03T00:25:58.363Z,46.49
2017-05-03T00:26:30.644Z,45.72
2017-05-03T00:27:02.935Z,45.82
2017-05-03T00:27:35.219Z,45.92
2017-05-03T00:28:07.503Z,45.92
2017-05-03T00:28:39.794Z,45.72
2017-05-03T00:29:12.091Z,46.01
2017-05-03T00:29:44.386Z,46.01
2017-05-03T00:30:16.659Z,45.92
2017-05-03T00:30:48.930Z,46.01
2017-05-03T00:31:21.219Z,46.59
2017-05-03T00:31:53.511Z,46.4
2017-05-03T00:32:25.792Z,46.4
2017-05-03T00:32:58.028Z,45.82
2017-05-03T00:33:30.262Z,46.4
2017-05-03T00:34:02.522Z,46.4
2017-05-03T00:34:34.792Z,46.11
2017-05-03T00:35:07.040Z,46.49
2017-05-03T00:35:39.291Z,46.11
2017-05-03T00:36:11.570Z,46.49
2017-05-03T00:36:43.824Z,46.49
2017-05-03T00:37:16.070Z,46.49
2017-05-03T00:37:48.336Z,46.49
2017-05-03T00:38:20.633Z,45.72
2017-05-03T00:38:52.883Z,46.01
2017-05-03T00:39:25.143Z,46.49
2017-05-03T00:39:58.372Z,46.4
2017-05-03T00:40:30.673Z,45.72
2017-05-03T00:41:02.920Z,46.49
2017-05-03T00:41:35.185Z,46.49
2017-05-03T00:42:07.446Z,46.4
2017-05-03T00:42:40.470Z,46.49
2017-05-03T00:43:12.739Z,46.49
2017-05-03T00:43:44.998Z,46.4
2017-05-03T00:44:17.301Z,46.11
2017-05-03T00:44:49.613Z,45.72
2017-05-03T00:45:22.507Z,46.4
2017-05-03T00:45:55.419Z,46.01
2017-05-03T00:46:27.680Z,46.49
2017-05-03T00:46:59.966Z,46.4
2017-05-03T00:47:32.270Z,46.49
2017-05-03T00:48:04.516Z,46.11
2017-05-03T00:48:36.806Z,45.72
2017-05-03T00:49:09.064Z,46.49
2017-05-03T00:49:41.325Z,46.49
2017-05-03T00:50:13.579Z,46.49
2017-05-03T00:50:45.831Z,46.49
2017-05-03T00:51:18.136Z,46.11
2017-05-03T00:51:50.458Z,46.4
2017-05-03T00:52:22.711Z,46.11
2017-05-03T00:52:54.960Z,46.49
2017-05-03T00:53:27.200Z,46.4
2017-05-03T00:53:59.432Z,46.49
2017-05-03T00:54:32.434Z,46.4
2017-05-03T00:55:04.687Z,46.4
2017-05-03T00:55:36.934Z,46.49
2017-05-03T00:56:09.210Z,46.49
2017-05-03T00:56:41.555Z,46.4
2017-05-03T00:57:13.801Z,46.4
2017-05-03T00:57:46.041Z,46.49
2017-05-03T00:58:19.017Z,46.49
2017-05-03T00:58:51.279Z,46.49
2017-05-03T00:59:23.533Z,46.4
2017-05-03T00:59:55.849Z,46.4
2017-05-03T01:00:28.146Z,46.4
2017-05-03T01:01:00.971Z,46.11
2017-05-03T01:01:34.007Z,46.2
2017-05-03T01:02:06.282Z,46.11
2017-05-03T01:02:38.535Z,46.49
2017-05-03T01:03:10.805Z,46.4
2017-05-03T01:03:43.048Z,46.49
2017-05-03T01:04:15.296Z,46.11
2017-05-03T01:04:49.044Z,46.4
2017-05-03T01:05:21.290Z,46.11
2017-05-03T01:05:53.553Z,46.2
2017-05-03T01:06:25.806Z,46.4
2017-05-03T01:06:58.565Z,46.11
2017-05-03T01:07:30.810Z,46.4
2017-05-03T01:08:03.068Z,46.4
2017-05-03T01:08:35.962Z,46.2
2017-05-03T01:09:08.234Z,46.4
2017-05-03T01:09:40.489Z,46.2
2017-05-03T01:10:12.745Z,46.4
2017-05-03T01:10:45.031Z,46.4
2017-05-03T01:11:17.939Z,46.11
2017-05-03T01:11:50.202Z,46.59
2017-05-03T01:12:22.460Z,46.3
2017-05-03T01:12:54.722Z,46.3
2017-05-03T01:13:26.984Z,46.2
2017-05-03T01:13:59.245Z,46.49
2017-05-03T01:14:31.514Z,46.4
2017-05-03T01:15:03.801Z,46.11
2017-05-03T01:15:36.864Z,46.4
2017-05-03T01:16:09.133Z,46.4
2017-05-03T01:16:41.402Z,46.4
2017-05-03T01:17:13.648Z,46.4
2017-05-03T01:17:45.899Z,46.01
2017-05-03T01:18:18.177Z,46.3
2017-05-03T01:18:50.445Z,46.3
2017-05-03T01:19:22.710Z,46.4
2017-05-03T01:19:54.983Z,46.2
2017-05-03T01:20:27.236Z,46.3
2017-05-03T01:20:59.506Z,46.3
2017-05-03T01:21:31.761Z,46.4
2017-05-03T01:22:04.012Z,46.4
2017-05-03T01:22:36.256Z,46.2
2017-05-03T01:23:09.024Z,46.4
2017-05-03T01:23:41.294Z,46.3
2017-05-03T01:24:13.576Z,46.4
2017-05-03T01:24:45.854Z,46.4
2017-05-03T01:25:19.031Z,46.2
2017-05-03T01:25:51.293Z,46.01
2017-05-03T01:26:23.540Z,46.4
2017-05-03T01:26:55.806Z,46.4
2017-05-03T01:27:28.055Z,46.4
2017-05-03T01:28:00.306Z,46.3
2017-05-03T01:28:32.645Z,46.4
2017-05-03T01:29:04.895Z,46.4
2017-05-03T01:29:37.140Z,46.4
2017-05-03T01:30:09.371Z,46.3
2017-05-03T01:30:41.743Z,46.01
2017-05-03T01:31:14.016Z,46.3
2017-05-03T01:31:46.300Z,46.4
2017-05-03T01:32:18.556Z,46.4
2017-05-03T01:32:50.844Z,46.4
2017-05-03T01:33:23.145Z,46.01
2017-05-03T01:33:55.440Z,46.4
2017-05-03T01:34:27.742Z,46.2
2017-05-03T01:35:00.041Z,46.4
2017-05-03T01:35:32.319Z,46.3
2017-05-03T01:36:04.607Z,46.4
2017-05-03T01:36:36.898Z,46.3
2017-05-03T01:37:09.193Z,46.3
2017-05-03T01:37:41.497Z,46.4
2017-05-03T01:38:13.782Z,46.01
2017-05-03T01:38:46.083Z,46.3
2017-05-03T01:39:18.360Z,46.4
2017-05-03T01:39:50.664Z,46.3
2017-05-03T01:40:22.939Z,46.3
2017-05-03T01:40:55.229Z,46.01
2017-05-03T01:41:27.517Z,46.3
2017-05-03T01:41:59.802Z,46.4
2017-05-03T01:42:32.079Z,46.4
2017-05-03T01:43:04.373Z,46.3
2017-05-03T01:43:36.627Z,46.11
2017-05-03T01:44:08.933Z,46.4
2017-05-03T01:44:41.188Z,46.4
2017-05-03T01:45:13.454Z,46.3
2017-05-03T01:45:45.799Z,46.3
2017-05-03T01:46:18.063Z,46.4
2017-05-03T01:46:50.323Z,46.3
2017-05-03T01:47:22.574Z,46.3
2017-05-03T01:47:54.829Z,46.4
2017-05-03T01:48:27.108Z,46.4
2017-05-03T01:48:59.467Z,46.3
2017-05-03T01:49:32.374Z,46.3
2017-05-03T01:50:04.648Z,45.92
2017-05-03T01:50:36.921Z,46.3
2017-05-03T01:51:09.173Z,46.4
2017-05-03T01:51:42.402Z,45.92
2017-05-03T01:52:14.714Z,46.01
2017-05-03T01:52:47.015Z,46.4
2017-05-03T01:53:19.309Z,46.3
2017-05-03T01:53:51.593Z,46.3
2017-05-03T01:54:23.873Z,46.4
2017-05-03T01:54:56.168Z,46.4
2017-05-03T01:55:28.460Z,46.3
2017-05-03T01:56:00.782Z,46.4
2017-05-03T01:56:33.064Z,46.2
2017-05-03T01:57:05.381Z,46.3
2017-05-03T01:57:37.681Z,46.4
2017-05-03T01:58:09.980Z,46.4
2017-05-03T01:58:42.260Z,46.4
2017-05-03T01:59:14.569Z,46.3
2017-05-03T01:59:46.863Z,46.4
2017-05-03T02:00:19.184Z,46.3
2017-05-03T02:00:51.482Z,46.3
2017-05-03T02:01:23.776Z,46.49
2017-05-03T02:01:56.064Z,46.3
2017-05-03T02:02:28.392Z,46.2
2017-05-03T02:03:00.691Z,46.2
2017-05-03T02:03:32.987Z,46.4
2017-05-03T02:04:05.278Z,46.4
2017-05-03T02:04:37.571Z,46.3
2017-05-03T02:05:09.857Z,45.92
2017-05-03T02:05:42.156Z,46.4
2017-05-03T02:06:14.453Z,46.11
2017-05-03T02:06:46.752Z,46.2
2017-05-03T02:07:19.035Z,46.3
2017-05-03T02:07:51.330Z,46.3
2017-05-03T02:08:23.617Z,46.3
2017-05-03T02:08:55.937Z,46.3
2017-05-03T02:09:28.236Z,46.3
2017-05-03T02:10:00.523Z,46.4
2017-05-03T02:10:32.817Z,46.01
2017-05-03T02:11:05.102Z,46.4
2017-05-03T02:11:37.394Z,46.3
2017-05-03T02:12:09.687Z,46.01
2017-05-03T02:12:41.943Z,46.3
2017-05-03T02:13:14.193Z,46.4
2017-05-03T02:13:46.431Z,46.3
2017-05-03T02:14:18.681Z,46.3
2017-05-03T02:14:50.929Z,46.3
2017-05-03T02:15:23.177Z,46.4
2017-05-03T02:15:55.427Z,46.4
2017-05-03T02:16:27.758Z,46.3
2017-05-03T02:17:00.007Z,45.92
2017-05-03T02:17:32.260Z,46.01
2017-05-03T02:18:04.532Z,46.4
2017-05-03T02:18:36.811Z,46.4
2017-05-03T02:19:09.058Z,46.3
2017-05-03T02:19:41.344Z,46.4
2017-05-03T02:20:13.653Z,46.3
2017-05-03T02:20:45.911Z,46.3
2017-05-03T02:21:18.197Z,46.01
2017-05-03T02:21:50.464Z,46.3
2017-05-03T02:22:23.501Z,46.3
2017-05-03T02:22:55.749Z,46.3
2017-05-03T02:23:28.029Z,46.3
2017-05-03T02:24:00.292Z,46.3
2017-05-03T02:24:33.514Z,46.2
2017-05-03T02:25:05.793Z,46.4
2017-05-03T02:25:38.633Z,46.3
2017-05-03T02:26:10.877Z,46.4
2017-05-03T02:26:43.166Z,46.01
2017-05-03T02:27:15.422Z,46.3
2017-05-03T02:27:47.690Z,46.3
2017-05-03T02:28:19.931Z,46.01
2017-05-03T02:28:52.251Z,46.3
2017-05-03T02:29:24.506Z,46.4
2017-05-03T02:29:56.778Z,46.4
2017-05-03T02:30:29.051Z,46.01
2017-05-03T02:31:01.307Z,46.4
2017-05-03T02:31:34.463Z,46.4
2017-05-03T02:32:06.757Z,46.3
2017-05-03T02:32:40.554Z,46.3
2017-05-03T02:33:12.822Z,46.4
2017-05-03T02:33:45.073Z,46.4
2017-05-03T02:34:17.319Z,46.3
2017-05-03T02:34:49.566Z,46.3
2017-05-03T02:35:21.857Z,45.82
2017-05-03T02:35:54.114Z,46.3
2017-05-03T02:36:26.343Z,46.4
2017-05-03T02:36:59.598Z,45.92
2017-05-03T02:37:31.861Z,46.3
2017-05-03T02:38:04.124Z,46.3
2017-05-03T02:38:36.374Z,46.3
2017-05-03T02:39:08.625Z,46.4
2017-05-03T07:55:19.384Z,45.59
2017-05-03T07:55:52.533Z,45.5
2017-05-03T07:56:24.802Z,45.69
2017-05-03T07:56:57.054Z,45.79
2017-05-03T07:57:29.294Z,45.69
2017-05-03T07:58:01.539Z,45.79
2017-05-03T07:58:33.922Z,45.98
2017-05-03T07:59:06.168Z,45.98
2017-05-03T07:59:38.438Z,45.89
2017-05-03T08:00:10.697Z,45.89
2017-05-03T08:00:42.948Z,45.98
2017-05-03T08:01:15.187Z,45.98
2017-05-03T08:01:47.460Z,46.08
2017-05-03T08:02:19.709Z,45.98
2017-05-03T08:02:51.990Z,46.08
2017-05-03T08:04:43.701Z,45.98
2017-05-03T08:05:16.013Z,46
2017-05-03T08:05:48.334Z,46
2017-05-03T08:06:20.601Z,45.79
2017-05-03T08:06:52.873Z,45.81
2017-05-03T08:07:25.658Z,45.81
2017-05-03T08:07:57.956Z,46
2017-05-03T08:08:30.997Z,45.81
2017-05-03T08:09:03.291Z,45.91
2017-05-03T08:09:35.591Z,45.91
2017-05-03T08:10:07.877Z,45.91
2017-05-03T08:10:40.159Z,45.81
2017-05-03T08:12:31.659Z,45.81
2017-05-03T08:13:03.981Z,45.81
2017-05-03T08:13:36.250Z,46
2017-05-03T08:14:08.540Z,45.81
2017-05-03T08:14:40.828Z,46
2017-05-03T08:15:13.142Z,45.91
2017-05-03T08:17:04.700Z,45.72
2017-05-03T08:17:36.976Z,45.72
2017-05-03T08:18:09.259Z,45.74
2017-05-03T08:20:01.159Z,45.64
2017-05-03T08:21:52.619Z,46.03
2017-05-03T08:22:24.918Z,45.93
2017-05-03T08:22:57.185Z,46.03
2017-05-03T08:23:29.464Z,45.83
2017-05-03T08:24:01.769Z,45.47
2017-05-03T08:24:34.057Z,45.83
2017-05-03T08:25:06.070Z,45.86
2017-05-03T08:25:38.370Z,45.86
2017-05-03T08:26:10.654Z,45.66
2017-05-03T08:28:03.369Z,45.57
2017-05-03T08:29:55.253Z,45.86
2017-05-03T08:30:27.289Z,45.4
2017-05-03T08:30:59.576Z,45.4
2017-05-03T08:31:31.856Z,45.3
2017-05-03T08:32:04.134Z,45.49
2017-05-03T08:32:36.456Z,45.59
2017-05-03T08:33:08.781Z,45.59
2017-05-03T08:33:41.061Z,45.4
2017-05-03T08:34:13.347Z,45.49
2017-05-03T08:34:45.626Z,45.68
2017-05-03T08:35:17.906Z,45.78
2017-05-03T08:35:50.952Z,45.3
2017-05-03T08:36:23.225Z,45.2
2017-05-03T08:36:55.250Z,45.4
2017-05-03T08:37:27.552Z,45.2
2017-05-03T08:39:19.227Z,45.61
2017-05-03T08:39:51.517Z,45.49
2017-05-03T08:40:23.770Z,45.42
2017-05-03T08:40:56.071Z,45.42
2017-05-03T08:41:28.125Z,44.93
2017-05-03T08:42:00.390Z,45.42
2017-05-03T08:42:32.715Z,45.42
2017-05-03T08:43:05.021Z,45.42
2017-05-03T08:43:37.980Z,45.42
2017-05-03T08:45:29.728Z,45.42
2017-05-03T08:46:02.014Z,45.42
2017-05-03T08:46:34.309Z,45.42
2017-05-03T08:47:06.638Z,45.42
2017-05-03T08:47:38.984Z,45.42
2017-05-03T08:48:11.264Z,45.42
2017-05-03T08:48:43.546Z,45.34
2017-05-03T08:49:16.013Z,45.34
2017-05-03T08:49:48.300Z,45.44
2017-05-03T08:51:40.267Z,44.57
2017-05-03T08:52:12.587Z,44.96
2017-05-03T08:52:45.214Z,44.96
2017-05-03T08:54:36.721Z,44.67
2017-05-03T08:55:09.013Z,44.76
2017-05-03T08:55:41.494Z,44.67
2017-05-03T08:57:33.516Z,44.57
2017-05-03T08:58:05.941Z,44.76
2017-05-03T08:58:38.249Z,44.67
2017-05-03T08:59:10.528Z,44.47
2017-05-03T08:59:42.833Z,44.76
2017-05-03T09:00:15.139Z,44.67
2017-05-03T09:00:47.425Z,44.76
2017-05-03T09:02:39.121Z,44.78
2017-05-03T09:04:30.698Z,44.98
2017-05-03T09:05:03.114Z,44.59
2017-05-03T09:06:54.319Z,44.88
2017-05-03T09:07:26.611Z,44.98
2017-05-03T09:07:58.891Z,44.78
2017-05-03T09:08:31.178Z,44.88
2017-05-03T09:09:03.202Z,44.78
2017-05-03T09:09:35.518Z,44.98
2017-05-03T09:10:07.850Z,44.78
2017-05-03T09:10:40.219Z,44.88
2017-05-03T09:11:12.632Z,44.88
2017-05-03T09:11:44.925Z,44.98
2017-05-03T09:12:17.221Z,44.88
2017-05-03T09:12:49.526Z,44.98
2017-05-03T09:14:41.279Z,44.68
2017-05-03T09:15:13.653Z,44.98
2017-05-03T09:15:46.406Z,44.88
2017-05-03T09:16:18.692Z,44.78
2017-05-03T09:16:50.990Z,44.98
2017-05-03T09:18:42.784Z,44.3
2017-05-03T09:20:34.754Z,44.78
2017-05-03T09:21:07.063Z,44.68
2017-05-03T09:21:39.363Z,44.68
2017-05-03T09:23:31.252Z,44.9
2017-05-03T09:24:03.545Z,44.81
2017-05-03T09:24:35.831Z,44.61
2017-05-03T09:25:08.120Z,44.51
2017-05-03T09:25:40.407Z,44.71
2017-05-03T09:26:12.694Z,44.71
2017-05-03T09:26:44.966Z,44.71
2017-05-03T09:27:17.269Z,44.61
2017-05-03T09:27:49.539Z,44.61
2017-05-03T09:28:21.820Z,44.81
2017-05-03T09:28:54.106Z,44.71
2017-05-03T09:29:26.384Z,44.13
2017-05-03T09:29:58.725Z,44.42
2017-05-03T09:30:31.035Z,44.61
2017-05-03T09:31:03.325Z,44.71
2017-05-03T09:31:35.629Z,44.81
2017-05-03T09:32:07.929Z,44.61
2017-05-03T09:32:40.661Z,44.61
2017-05-03T09:33:12.958Z,44.71
2017-05-03T09:33:47.145Z,44.81
2017-05-03T09:34:20.675Z,44.81
2017-05-03T09:34:53.054Z,44.61
2017-05-03T09:35:25.316Z,44.71
2017-05-03T09:35:57.563Z,44.71
2017-05-03T09:36:29.814Z,44.71
2017-05-03T09:37:02.057Z,44.81
2017-05-03T09:37:34.402Z,44.71
2017-05-03T09:38:06.690Z,44.61
2017-05-03T09:38:39.595Z,44.83
2017-05-03T09:39:11.847Z,44.54
2017-05-03T09:39:45.995Z,44.73
2017-05-03T09:40:18.260Z,44.73
2017-05-03T09:40:50.512Z,44.64
2017-05-03T09:41:22.760Z,44.54
2017-05-03T09:41:55.037Z,44.54
2017-05-03T09:42:27.331Z,44.54
2017-05-03T09:42:59.621Z,44.83
2017-05-03T09:43:31.876Z,44.44
2017-05-03T09:44:04.114Z,44.54
2017-05-03T09:44:36.356Z,44.44
2017-05-03T09:45:09.573Z,44.44
2017-05-03T09:45:42.667Z,44.64
2017-05-03T09:46:14.956Z,44.54
2017-05-03T09:46:47.230Z,44.44
2017-05-03T09:47:19.605Z,44.24
2017-05-03T09:47:51.868Z,44.44
2017-05-03T09:48:24.146Z,44.44
2017-05-03T09:48:56.376Z,44.64
2017-05-03T09:49:28.631Z,44.24
2017-05-03T09:50:00.883Z,44.64
2017-05-03T09:50:33.127Z,44.54
2017-05-03T09:51:05.416Z,44.54
2017-05-03T09:51:38.568Z,44.54
2017-05-03T09:52:10.835Z,44.15
2017-05-03T09:52:43.129Z,44.24
2017-05-03T09:53:15.412Z,44.34
2017-05-03T09:53:47.689Z,44.44
2017-05-03T09:54:20.131Z,44.24
2017-05-03T09:54:52.415Z,44.34
2017-05-03T09:55:24.704Z,44.34
2017-05-03T09:55:56.989Z,44.05
2017-05-03T09:56:29.288Z,44.44
2017-05-03T09:57:01.555Z,44.46
2017-05-03T09:57:34.092Z,44.37
2017-05-03T09:58:06.913Z,44.27
2017-05-03T09:58:39.191Z,44.27
2017-05-03T09:59:11.480Z,44.27
2017-05-03T09:59:43.774Z,44.37
2017-05-03T10:00:16.068Z,44.46
2017-05-03T10:00:48.357Z,44.46
2017-05-03T10:01:20.637Z,44.46
2017-05-03T10:01:52.922Z,44.46
2017-05-03T10:02:25.204Z,44.37
2017-05-03T10:02:58.068Z,44.46
2017-05-03T10:03:30.327Z,44.37
2017-05-03T10:04:02.598Z,44.46
2017-05-03T10:04:34.875Z,44.46
2017-05-03T10:05:07.203Z,44.37
2017-05-03T10:05:39.483Z,44.17
2017-05-03T10:06:11.730Z,44.17
2017-05-03T10:06:44.002Z,44.27
2017-05-03T10:07:16.274Z,44.07
2017-05-03T10:07:48.531Z,43.98
2017-05-03T10:08:21.625Z,43.98
2017-05-03T10:08:54.539Z,43.98
2017-05-03T10:09:26.811Z,43.88
2017-05-03T10:09:59.063Z,43.98
2017-05-03T10:10:31.401Z,44.07
2017-05-03T10:11:03.694Z,44.17
2017-05-03T10:11:36.621Z,43.88
2017-05-03T10:12:08.930Z,43.88
2017-05-03T10:12:42.236Z,44.17
2017-05-03T10:13:14.505Z,44.19
2017-05-03T10:13:47.733Z,43.98
2017-05-03T10:14:23.904Z,43.98
2017-05-03T10:14:56.178Z,43.9
2017-05-03T10:15:28.447Z,43.98
2017-05-03T10:16:00.692Z,44.17
2017-05-03T10:16:32.974Z,44.19
2017-05-03T10:17:05.212Z,44.19
2017-05-03T10:17:38.039Z,44
2017-05-03T10:18:10.289Z,44.09
2017-05-03T10:18:42.546Z,44.09
2017-05-03T10:19:15.673Z,44.19
2017-05-03T10:19:47.927Z,44.09
2017-05-03T10:20:20.200Z,43.98
2017-05-03T10:20:52.470Z,43.98
2017-05-03T10:21:25.242Z,44.09
2017-05-03T10:21:57.484Z,44
2017-05-03T10:22:29.734Z,44
2017-05-03T10:23:01.988Z,43.9
2017-05-03T10:23:34.254Z,43.8
2017-05-03T10:24:06.618Z,43.8
2017-05-03T10:24:38.904Z,43.51
2017-05-03T10:25:12.230Z,43.9
2017-05-03T10:25:44.476Z,43.9
2017-05-03T10:26:17.208Z,43.9
2017-05-03T10:26:49.475Z,43.9
2017-05-03T10:27:21.723Z,43.9
2017-05-03T10:27:53.994Z,43.9
2017-05-03T10:28:26.252Z,43.8
2017-05-03T10:28:58.514Z,43.8
2017-05-03T10:29:31.558Z,43.8
2017-05-03T10:30:03.811Z,43.8
2017-05-03T10:30:36.063Z,43.8
2017-05-03T10:31:08.307Z,43.61
2017-05-03T10:31:40.575Z,43.41
2017-05-03T10:32:12.841Z,43.71
2017-05-03T10:32:47.212Z,43.51
2017-05-03T10:33:19.482Z,44
2017-05-03T10:33:51.743Z,43.44
2017-05-03T10:34:24.015Z,43.92
2017-05-03T10:34:56.331Z,43.82
2017-05-03T10:35:29.242Z,43.92
2017-05-03T10:36:01.478Z,43.92
2017-05-03T10:36:33.727Z,43.73
2017-05-03T10:37:05.995Z,43.92
2017-05-03T10:37:38.265Z,43.54
2017-05-03T10:38:10.508Z,43.54
2017-05-03T10:38:42.758Z,43.63
2017-05-03T10:39:15.017Z,43.82
2017-05-03T10:39:48.058Z,43.54
2017-05-03T10:40:20.353Z,43.82
2017-05-03T10:40:52.617Z,43.73
2017-05-03T10:41:24.863Z,43.95
2017-05-03T10:41:57.221Z,43.92
2017-05-03T10:42:29.466Z,43.85
2017-05-03T10:43:01.804Z,43.73
2017-05-03T10:43:34.092Z,43.55
2017-05-03T10:44:06.361Z,43.46
2017-05-03T10:44:38.671Z,43.46
2017-05-03T10:45:10.964Z,43.46
2017-05-03T10:45:43.241Z,43.36
2017-05-03T10:46:15.527Z,43.26
2017-05-03T10:46:47.817Z,43.36
2017-05-03T10:47:20.084Z,43.36
2017-05-03T10:47:52.382Z,43.16
2017-05-03T10:48:24.654Z,43.29
2017-05-03T10:48:57.678Z,43.29
2017-05-03T10:49:30.349Z,43.38
2017-05-03T10:50:02.824Z,43.29
2017-05-03T10:50:35.591Z,43.48
2017-05-03T10:51:07.881Z,43.19
2017-05-03T10:51:40.728Z,43.38
2017-05-03T10:52:13.007Z,43.19
2017-05-03T10:52:45.263Z,43.58
2017-05-03T10:53:17.531Z,43.09
2017-05-03T10:53:49.783Z,42.9
2017-05-03T10:54:22.056Z,43.38
2017-05-03T10:54:54.404Z,43.19
2017-05-03T10:55:26.650Z,43.19
2017-05-03T10:55:58.889Z,42.99
2017-05-03T10:56:31.129Z,43.09
2017-05-03T10:57:03.384Z,42.99
2017-05-03T10:57:35.628Z,43.09
2017-05-03T10:58:07.938Z,42.8
2017-05-03T10:58:40.274Z,42.8
2017-05-03T10:59:12.525Z,42.82
2017-05-03T10:59:44.772Z,42.9
2017-05-03T11:00:17.012Z,42.91
2017-05-03T11:00:49.273Z,42.9
2017-05-03T11:01:21.663Z,43.01
2017-05-03T11:01:53.906Z,42.82
2017-05-03T11:02:26.156Z,42.91
2017-05-03T11:02:58.400Z,43.01
2017-05-03T11:03:31.215Z,42.72
2017-05-03T11:04:03.481Z,42.72
2017-05-03T11:04:35.759Z,43.11
2017-05-03T11:05:08.024Z,43.01
2017-05-03T11:05:40.262Z,43.01
2017-05-03T11:06:13.207Z,42.82
2017-05-03T11:06:45.485Z,43.01
2017-05-03T11:07:17.822Z,42.82
2017-05-03T11:07:50.721Z,42.63
2017-05-03T11:08:23.626Z,42.63
2017-05-03T11:08:57.231Z,42.63
2017-05-03T11:09:29.542Z,42.82
2017-05-03T11:10:01.799Z,42.53
2017-05-03T11:10:34.082Z,42.53
2017-05-03T11:11:07.122Z,42.63
2017-05-03T11:11:41.228Z,42.43
2017-05-03T11:12:13.492Z,42.53
2017-05-03T11:12:45.773Z,42.43
2017-05-03T11:13:18.047Z,42.43
2017-05-03T11:13:50.299Z,42.24
2017-05-03T11:14:22.589Z,42.43
2017-05-03T11:14:56.583Z,42.33
2017-05-03T11:15:28.844Z,42.43
2017-05-03T11:16:01.106Z,42.33
2017-05-03T11:16:33.474Z,42.25
2017-05-03T11:17:05.752Z,42.55
2017-05-03T11:17:38.030Z,42.16
2017-05-03T11:18:10.291Z,42.16
2017-05-03T11:18:42.581Z,42.16
2017-05-03T11:19:14.850Z,42.06
2017-05-03T11:19:47.117Z,42.25
2017-05-03T11:20:19.398Z,42.06
2017-05-03T11:20:51.675Z,42.06
2017-05-03T11:21:23.960Z,42.06
2017-05-03T11:21:56.230Z,42.25
2017-05-03T11:22:28.508Z,42.25
2017-05-03T11:23:00.787Z,42.25
2017-05-03T11:23:33.053Z,42.06
2017-05-03T11:24:05.339Z,42.06
2017-05-03T11:24:37.611Z,42.16
2017-05-03T11:25:09.900Z,42.24
2017-05-03T11:25:42.175Z,41.96
2017-05-03T11:26:14.464Z,42.06
2017-05-03T11:26:46.734Z,42.16
2017-05-03T11:27:19.007Z,42.45
2017-05-03T11:27:51.289Z,42.16
2017-05-03T11:28:23.568Z,42.16
2017-05-03T11:28:55.859Z,41.67
2017-05-03T11:29:28.157Z,42.16
2017-05-03T11:30:00.447Z,42.45
2017-05-03T11:30:32.716Z,41.86
2017-05-03T11:31:04.986Z,41.86
2017-05-03T11:31:37.257Z,41.96
2017-05-03T11:32:09.548Z,41.86
2017-05-03T11:32:41.935Z,41.96
2017-05-03T11:33:14.201Z,41.96
2017-05-03T11:33:46.440Z,41.86
2017-05-03T11:34:18.706Z,41.96
2017-05-03T11:34:50.975Z,42.08
2017-05-03T11:35:23.209Z,41.99
2017-05-03T11:35:55.500Z,41.99
2017-05-03T11:36:28.252Z,41.79
2017-05-03T11:37:00.520Z,41.67
2017-05-03T11:37:32.772Z,41.89
2017-05-03T11:38:05.046Z,41.89
2017-05-03T11:38:37.275Z,41.69
2017-05-03T11:39:09.535Z,41.6
2017-05-03T11:39:41.796Z,41.5
2017-05-03T11:40:14.088Z,41.4
2017-05-03T11:40:46.340Z,41.52
2017-05-03T11:41:18.614Z,41.42
2017-05-03T11:41:50.879Z,41.6
2017-05-03T11:42:23.148Z,41.61
2017-05-03T11:42:55.414Z,41.89
2017-05-03T11:43:27.690Z,41.42
2017-05-03T11:43:59.970Z,41.81
2017-05-03T11:44:32.317Z,41.71
2017-05-03T11:45:04.593Z,41.22
2017-05-03T11:45:37.738Z,41.32
2017-05-03T11:46:10.027Z,41.42
2017-05-03T11:46:42.340Z,41.42
2017-05-03T11:47:14.597Z,41.61
2017-05-03T11:47:46.870Z,41.61
2017-05-03T11:48:19.141Z,41.42
2017-05-03T11:48:51.426Z,41.42
2017-05-03T11:49:23.712Z,41.52
2017-05-03T11:49:55.990Z,41.42
2017-05-03T11:50:28.276Z,41.52
2017-05-03T11:51:00.546Z,41.22
2017-05-03T11:51:32.825Z,41.13
2017-05-03T11:52:05.118Z,41.25
2017-05-03T11:52:37.374Z,41.05
2017-05-03T11:53:09.639Z,41.25
2017-05-03T11:53:42.795Z,40.95
2017-05-03T11:54:15.063Z,41.15
2017-05-03T11:54:47.328Z,41.36
2017-05-03T11:55:19.582Z,41.35
2017-05-03T11:55:51.812Z,41.35
2017-05-03T11:56:24.070Z,41.27
2017-05-03T11:56:56.325Z,41.07
2017-05-03T11:57:28.576Z,40.88
2017-05-03T11:58:00.824Z,40.68
2017-05-03T11:58:33.081Z,41.09
2017-05-03T11:59:05.334Z,41.17
2017-05-03T11:59:37.631Z,40.99
2017-05-03T12:00:09.985Z,40.31
2017-05-03T12:00:42.256Z,40.7
2017-05-03T12:01:14.504Z,40.7
2017-05-03T12:01:46.811Z,40.6
2017-05-03T12:02:19.665Z,40.8
2017-05-03T12:02:52.044Z,40.33
2017-05-03T12:03:24.300Z,40.31
2017-05-03T12:03:56.545Z,40.7
2017-05-03T12:04:28.779Z,40.6
2017-05-03T12:05:01.039Z,40.6
2017-05-03T12:05:33.289Z,40.6
2017-05-03T12:06:05.532Z,40.41
2017-05-03T12:06:37.774Z,40.6
2017-05-03T12:07:11.213Z,40.6
2017-05-03T12:07:43.463Z,40.5
2017-05-03T12:08:15.718Z,40.6
2017-05-03T12:08:47.983Z,40.7
2017-05-03T12:09:20.232Z,40.68
2017-05-03T12:09:52.473Z,40.68
2017-05-03T12:10:24.723Z,40.7
2017-05-03T12:10:57.009Z,40.58
2017-05-03T12:11:29.249Z,40.6
2017-05-03T12:12:01.500Z,40.6
2017-05-03T12:12:33.775Z,40.6
2017-05-03T12:13:06.050Z,40.6
2017-05-03T12:13:38.320Z,40.58
2017-05-03T12:14:10.601Z,40.58
2017-05-03T12:14:42.869Z,40.58
2017-05-03T12:15:15.126Z,40.58
2017-05-03T12:15:47.397Z,40.48
2017-05-03T12:16:19.667Z,40.48
2017-05-03T12:16:51.934Z,40.48
2017-05-03T12:17:24.213Z,40.48
2017-05-03T12:17:56.490Z,40.58
2017-05-03T12:18:28.761Z,40.58
2017-05-03T12:19:01.021Z,40.48
2017-05-03T12:19:33.317Z,40.29
2017-05-03T12:20:05.580Z,40.48
2017-05-03T12:20:37.858Z,40.19
2017-05-03T12:21:10.135Z,40
2017-05-03T12:21:42.400Z,40.01
2017-05-03T12:22:14.672Z,40.01
2017-05-03T12:24:06.296Z,40.21
2017-05-03T12:24:38.557Z,40.31
2017-05-03T12:25:10.847Z,40.11
2017-05-03T12:27:02.342Z,39.72
2017-05-03T12:27:34.615Z,39.82
2017-05-03T12:28:06.888Z,39.72
2017-05-03T12:28:39.166Z,39.82
2017-05-03T12:29:11.428Z,39.84
2017-05-03T12:29:43.710Z,39.72
2017-05-03T12:30:15.996Z,39.72
2017-05-03T12:30:48.279Z,40.11
2017-05-03T12:31:20.552Z,39.72
2017-05-03T12:31:52.794Z,39.92
2017-05-03T12:32:25.072Z,39.72
2017-05-03T12:32:57.367Z,40.31
2017-05-03T12:34:48.887Z,40.21
2017-05-03T12:35:21.150Z,40
2017-05-03T12:35:53.643Z,40.19
2017-05-03T12:36:26.873Z,40.29
2017-05-03T12:38:18.839Z,40.21
2017-05-03T12:38:51.114Z,39.55
2017-05-03T12:39:26.533Z,39.26
2017-05-03T12:39:58.827Z,39.08
2017-05-03T12:40:31.107Z,38.98
2017-05-03T12:41:03.399Z,38.79
2017-05-03T12:41:35.688Z,38.61
2017-05-03T12:42:07.958Z,38.61
2017-05-03T12:42:40.240Z,38.42
2017-05-03T12:43:12.524Z,38.43
2017-05-03T12:43:44.806Z,38.34
2017-05-03T12:44:17.081Z,38.43
2017-05-03T12:44:49.369Z,38.34
2017-05-03T12:45:21.642Z,38.35
2017-05-03T12:45:53.918Z,38.35
2017-05-03T12:46:26.185Z,38.26
2017-05-03T12:46:58.463Z,38.06
2017-05-03T12:47:30.738Z,38.16
2017-05-03T12:48:03.004Z,38.35
2017-05-03T12:48:35.290Z,38.34
2017-05-03T12:49:07.567Z,38.71